createdAt,value
2018-09-09T00:01:00.175Z,15.30
2018-09-09T00:03:31.345Z,15.30
2018-09-09T00:05:59.044Z,15.30
2018-09-09T00:08:26.660Z,15.30
2018-09-09T00:10:54.224Z,15.40
2018-09-09T00:13:21.844Z,15.40
2018-09-09T00:15:49.472Z,15.40
2018-09-09T00:18:17.152Z,15.30
2018-09-09T00:20:44.696Z,15.30
2018-09-09T00:23:12.392Z,15.30
2018-09-09T00:25:40.043Z,15.30
2018-09-09T00:28:07.610Z,15.40
2018-09-09T00:30:35.592Z,15.30
2018-09-09T00:33:03.238Z,15.30
2018-09-09T00:35:30.942Z,15.30
2018-09-09T00:37:58.783Z,15.30
2018-09-09T00:40:26.417Z,15.30
2018-09-09T00:42:54.054Z,15.30
2018-09-09T00:45:21.607Z,15.30
2018-09-09T00:47:49.267Z,15.20
2018-09-09T00:50:22.292Z,15.10
2018-09-09T00:52:55.354Z,15.00
2018-09-09T00:55:22.930Z,15.10
2018-09-09T00:57:50.662Z,14.90
2018-09-09T01:01:24.078Z,14.90
2018-09-09T01:03:51.604Z,14.90
2018-09-09T01:06:19.132Z,14.90
2018-09-09T01:08:46.759Z,14.90
2018-09-09T01:11:14.337Z,14.90
2018-09-09T01:13:41.931Z,14.90
2018-09-09T01:16:09.624Z,14.90
2018-09-09T01:18:37.311Z,14.90
2018-09-09T01:21:04.908Z,14.80
2018-09-09T01:23:32.482Z,14.80
2018-09-09T01:26:00.031Z,14.80
2018-09-09T01:28:27.595Z,14.80
2018-09-09T01:30:55.144Z,14.80
2018-09-09T01:33:22.738Z,14.80
2018-09-09T01:35:50.384Z,14.70
2018-09-09T01:38:17.965Z,14.80
2018-09-09T01:40:45.660Z,14.80
2018-09-09T01:43:13.361Z,14.60
2018-09-09T01:45:40.947Z,14.60
2018-09-09T01:48:08.549Z,14.60
2018-09-09T01:50:36.102Z,14.50
2018-09-09T01:53:04.005Z,14.40
2018-09-09T01:55:31.567Z,14.30
2018-09-09T01:57:59.149Z,14.30
2018-09-09T02:00:26.762Z,14.20
2018-09-09T02:02:54.649Z,14.20
2018-09-09T02:05:22.204Z,14.00
2018-09-09T02:07:49.917Z,14.00
2018-09-09T02:10:17.444Z,14.00
2018-09-09T02:12:45.035Z,14.00
2018-09-09T02:15:12.659Z,14.00
2018-09-09T02:17:40.557Z,13.90
2018-09-09T02:20:08.137Z,14.00
2018-09-09T02:22:35.651Z,13.90
2018-09-09T02:25:03.249Z,13.90
2018-09-09T02:27:30.792Z,13.80
2018-09-09T02:29:58.341Z,13.60
2018-09-09T02:32:25.869Z,13.60
2018-09-09T02:34:53.544Z,13.60
2018-09-09T02:37:21.106Z,13.60
2018-09-09T02:39:48.665Z,13.60
2018-09-09T02:42:16.245Z,13.50
2018-09-09T02:44:43.784Z,13.50
2018-09-09T02:47:11.369Z,13.50
2018-09-09T02:49:38.902Z,13.50
2018-09-09T02:52:06.510Z,13.50
2018-09-09T02:54:42.020Z,13.50
2018-09-09T02:57:09.567Z,13.40
2018-09-09T02:59:37.118Z,13.40
2018-09-09T03:02:04.740Z,13.30
2018-09-09T03:04:32.308Z,13.30
2018-09-09T03:07:00.036Z,13.30
2018-09-09T03:09:27.581Z,13.30
2018-09-09T03:11:55.138Z,13.30
2018-09-09T03:14:22.782Z,13.30
2018-09-09T03:16:50.340Z,13.30
2018-09-09T03:19:18.008Z,13.30
2018-09-09T03:21:45.593Z,13.20
2018-09-09T03:24:13.219Z,13.10
2018-09-09T03:26:40.825Z,13.20
2018-09-09T03:29:08.375Z,13.00
2018-09-09T03:31:35.991Z,13.00
2018-09-09T03:34:03.669Z,12.90
2018-09-09T03:39:22.793Z,12.90
2018-09-09T03:41:50.309Z,12.80
2018-09-09T03:44:17.893Z,12.80
2018-09-09T03:46:45.493Z,12.70
2018-09-09T03:49:13.129Z,12.60
2018-09-09T03:51:40.645Z,12.50
2018-09-09T03:54:08.243Z,12.50
2018-09-09T03:56:35.763Z,12.50
2018-09-09T03:59:03.329Z,12.50
2018-09-09T04:01:30.868Z,12.50
2018-09-09T04:03:58.546Z,12.50
2018-09-09T04:06:26.445Z,12.50
2018-09-09T04:08:54.049Z,12.50
2018-09-09T04:11:21.617Z,12.40
2018-09-09T04:13:49.336Z,12.40
2018-09-09T04:16:28.175Z,12.40
2018-09-09T04:18:55.771Z,12.30
2018-09-09T04:21:23.440Z,12.20
2018-09-09T04:23:51.035Z,12.20
2018-09-09T04:26:18.647Z,12.10
2018-09-09T04:28:46.275Z,12.10
2018-09-09T04:31:14.000Z,12.10
2018-09-09T04:33:41.643Z,12.10
2018-09-09T04:36:09.337Z,12.10
2018-09-09T04:38:36.950Z,12.10
2018-09-09T04:41:04.642Z,12.10
2018-09-09T04:43:43.902Z,12.10
2018-09-09T04:46:11.515Z,11.90
2018-09-09T04:48:39.187Z,11.90
2018-09-09T04:51:06.808Z,11.90
2018-09-09T04:53:34.539Z,11.90
2018-09-09T04:56:02.100Z,11.90
2018-09-09T04:58:29.741Z,11.90
2018-09-09T05:00:57.394Z,11.90
2018-09-09T05:03:24.981Z,11.80
2018-09-09T05:05:52.601Z,11.80
2018-09-09T05:08:20.244Z,11.80
2018-09-09T05:10:47.737Z,11.80
2018-09-09T05:13:15.272Z,11.80
2018-09-09T05:15:42.736Z,11.80
2018-09-09T05:18:10.150Z,11.80
2018-09-09T05:20:37.560Z,11.80
2018-09-09T05:23:04.977Z,11.80
2018-09-09T05:25:32.405Z,11.80
2018-09-09T05:27:59.952Z,11.80
2018-09-09T05:30:27.360Z,11.90
2018-09-09T05:32:54.823Z,11.90
2018-09-09T05:35:22.247Z,11.90
2018-09-09T05:37:49.684Z,12.00
2018-09-09T05:40:17.167Z,12.10
2018-09-09T05:42:44.648Z,12.10
2018-09-09T05:45:12.221Z,12.20
2018-09-09T05:47:39.648Z,12.30
2018-09-09T05:50:07.077Z,12.30
2018-09-09T05:52:34.509Z,12.40
2018-09-09T05:55:02.932Z,12.50
2018-09-09T05:57:30.358Z,12.60
2018-09-09T05:59:57.892Z,12.60
2018-09-09T06:02:25.449Z,12.70
2018-09-09T06:04:52.872Z,12.80
2018-09-09T06:07:20.344Z,12.90
2018-09-09T06:09:47.772Z,12.90
2018-09-09T06:12:15.228Z,13.00
2018-09-09T06:14:42.676Z,13.10
2018-09-09T06:17:10.223Z,13.20
2018-09-09T06:19:37.742Z,13.20
2018-09-09T06:22:05.192Z,13.40
2018-09-09T06:24:32.761Z,13.50
2018-09-09T06:27:00.196Z,13.60
2018-09-09T06:29:27.647Z,13.70
2018-09-09T06:31:55.077Z,13.80
2018-09-09T06:34:22.560Z,13.90
2018-09-09T06:36:50.498Z,14.00
2018-09-09T06:39:17.917Z,14.10
2018-09-09T06:41:45.432Z,14.20
2018-09-09T06:44:12.929Z,14.30
2018-09-09T06:46:40.388Z,14.40
2018-09-09T06:49:08.020Z,14.50
2018-09-09T06:51:35.525Z,14.50
2018-09-09T06:54:03.097Z,14.60
2018-09-09T06:56:31.031Z,14.70
2018-09-09T06:58:58.544Z,14.70
2018-09-09T07:01:26.064Z,14.80
2018-09-09T07:03:53.538Z,14.70
2018-09-09T07:06:20.973Z,14.70
2018-09-09T07:08:48.422Z,14.70
2018-09-09T07:11:15.889Z,14.70
2018-09-09T07:13:43.269Z,14.80
2018-09-09T07:16:10.899Z,15.00
2018-09-09T07:18:38.416Z,15.40
2018-09-09T07:21:05.840Z,15.90
2018-09-09T07:23:33.263Z,16.50
2018-09-09T07:26:00.676Z,16.80
2018-09-09T07:28:28.189Z,17.40
2018-09-09T07:30:55.549Z,17.70
2018-09-09T07:33:23.156Z,18.40
2018-09-09T07:35:50.675Z,18.90
2018-09-09T07:38:18.144Z,19.60
2018-09-09T07:40:45.600Z,20.20
2018-09-09T07:43:13.241Z,20.50
2018-09-09T07:45:40.733Z,20.80
2018-09-09T07:48:08.224Z,21.00
2018-09-09T07:50:35.758Z,21.10
2018-09-09T07:53:03.213Z,21.20
2018-09-09T07:55:30.844Z,21.80
2018-09-09T07:57:58.316Z,22.10
2018-09-09T08:00:25.862Z,22.60
2018-09-09T08:02:53.344Z,23.00
2018-09-09T08:05:20.947Z,23.20
2018-09-09T08:07:48.481Z,23.20
2018-09-09T08:10:15.908Z,23.20
2018-09-09T08:12:43.337Z,23.50
2018-09-09T08:15:10.751Z,23.80
2018-09-09T08:17:38.319Z,23.70
2018-09-09T08:20:05.815Z,23.80
2018-09-09T08:22:33.255Z,24.00
2018-09-09T08:25:00.753Z,23.90
2018-09-09T08:27:28.205Z,23.90
2018-09-09T08:29:55.640Z,23.80
2018-09-09T08:32:23.305Z,23.90
2018-09-09T08:34:50.824Z,23.80
2018-09-09T08:37:18.261Z,23.60
2018-09-09T08:39:45.689Z,23.40
2018-09-09T08:42:13.124Z,23.40
2018-09-09T08:44:40.551Z,23.50
2018-09-09T08:47:07.968Z,23.70
2018-09-09T08:49:35.381Z,23.90
2018-09-09T08:52:02.908Z,24.30
2018-09-09T08:54:30.420Z,24.60
2018-09-09T08:56:57.910Z,25.00
2018-09-09T08:59:25.335Z,25.20
2018-09-09T09:01:52.820Z,25.10
2018-09-09T09:04:20.364Z,25.10
2018-09-09T09:06:47.853Z,25.30
2018-09-09T09:09:15.402Z,25.60
2018-09-09T09:11:42.844Z,25.80
2018-09-09T09:14:10.337Z,25.80
2018-09-09T09:16:38.018Z,25.80
2018-09-09T09:19:05.544Z,26.10
2018-09-09T09:21:33.021Z,26.50
2018-09-09T09:24:00.560Z,26.50
2018-09-09T09:26:28.014Z,26.60
2018-09-09T09:28:55.464Z,26.80
2018-09-09T09:31:22.911Z,26.20
2018-09-09T09:33:50.455Z,26.20
2018-09-09T09:36:17.960Z,26.30
2018-09-09T09:38:45.475Z,26.40
2018-09-09T09:41:13.066Z,26.30
2018-09-09T09:43:40.563Z,26.30
2018-09-09T09:46:08.133Z,26.40
2018-09-09T09:48:35.646Z,26.20
2018-09-09T09:51:03.175Z,26.20
2018-09-09T09:53:30.633Z,26.00
2018-09-09T09:55:58.050Z,26.00
2018-09-09T09:58:25.459Z,26.00
2018-09-09T10:01:00.263Z,26.30
2018-09-09T10:03:27.751Z,26.50
2018-09-09T10:05:55.132Z,26.40
2018-09-09T10:08:22.612Z,26.20
2018-09-09T10:10:50.321Z,26.20
2018-09-09T10:13:17.901Z,26.20
2018-09-09T10:15:45.368Z,26.40
2018-09-09T10:18:12.953Z,26.70
2018-09-09T10:20:40.467Z,26.50
2018-09-09T10:23:07.928Z,26.70
2018-09-09T10:25:35.388Z,26.50
2018-09-09T10:28:02.852Z,26.40
2018-09-09T10:30:30.477Z,26.40
2018-09-09T10:32:57.939Z,26.30
2018-09-09T10:35:25.900Z,26.20
2018-09-09T10:37:53.405Z,26.30
2018-09-09T10:40:20.849Z,26.30
2018-09-09T10:42:48.272Z,26.20
2018-09-09T10:45:15.756Z,26.40
2018-09-09T10:47:43.325Z,26.60
2018-09-09T10:50:10.739Z,26.30
2018-09-09T10:52:38.198Z,26.20
2018-09-09T10:55:05.743Z,26.50
2018-09-09T10:57:33.253Z,26.50
2018-09-09T11:00:00.672Z,26.40
2018-09-09T11:02:28.132Z,26.50
2018-09-09T11:04:55.548Z,26.50
2018-09-09T11:07:22.987Z,26.50
2018-09-09T11:09:51.462Z,26.50
2018-09-09T11:12:23.287Z,26.50
2018-09-09T11:14:50.723Z,26.80
2018-09-09T11:17:18.124Z,26.80
2018-09-09T11:19:45.600Z,26.80
2018-09-09T11:22:13.158Z,26.70
2018-09-09T11:24:40.683Z,26.70
2018-09-09T11:27:08.256Z,26.60
2018-09-09T11:29:35.690Z,26.70
2018-09-09T11:32:03.236Z,26.40
2018-09-09T11:34:30.753Z,26.40
2018-09-09T11:36:58.200Z,26.50
2018-09-09T11:39:25.655Z,26.60
2018-09-09T11:41:53.185Z,26.40
2018-09-09T11:44:20.620Z,26.30
2018-09-09T11:46:48.162Z,26.30
2018-09-09T11:49:15.621Z,26.40
2018-09-09T11:51:43.036Z,26.40
2018-09-09T11:54:11.201Z,26.20
2018-09-09T11:56:38.728Z,26.30
2018-09-09T11:59:06.345Z,26.30
2018-09-09T12:01:33.780Z,26.50
2018-09-09T12:04:01.252Z,26.40
2018-09-09T12:06:28.745Z,26.40
2018-09-09T12:08:56.196Z,26.30
2018-09-09T12:11:23.633Z,26.50
2018-09-09T12:13:51.051Z,26.60
2018-09-09T12:16:18.654Z,26.50
2018-09-09T12:18:46.081Z,26.50
2018-09-09T12:21:13.494Z,26.30
2018-09-09T12:23:40.970Z,26.40
2018-09-09T12:26:08.386Z,26.50
2018-09-09T12:28:35.849Z,26.50
2018-09-09T12:31:03.288Z,26.50
2018-09-09T12:33:30.808Z,26.60
2018-09-09T12:35:58.303Z,26.60
2018-09-09T12:38:25.700Z,26.40
2018-09-09T12:40:53.140Z,26.50
2018-09-09T12:43:26.129Z,26.50
2018-09-09T12:45:59.176Z,26.30
2018-09-09T12:48:32.289Z,26.30
2018-09-09T12:51:00.044Z,26.30
2018-09-09T12:53:27.577Z,26.00
2018-09-09T12:55:55.090Z,26.10
2018-09-09T12:58:22.521Z,26.30
2018-09-09T13:00:49.970Z,26.10
2018-09-09T13:03:17.483Z,26.10
2018-09-09T13:05:45.009Z,26.00
2018-09-09T13:08:12.437Z,26.00
2018-09-09T13:10:39.862Z,25.90
2018-09-09T13:13:12.733Z,25.90
2018-09-09T13:15:40.183Z,25.80
2018-09-09T13:18:07.612Z,25.90
2018-09-09T13:20:35.038Z,25.80
2018-09-09T13:23:02.473Z,25.80
2018-09-09T13:25:30.065Z,25.90
2018-09-09T13:27:57.552Z,25.80
2018-09-09T13:30:24.979Z,26.00
2018-09-09T13:32:52.438Z,26.00
2018-09-09T13:35:20.286Z,25.90
2018-09-09T13:37:47.829Z,25.90
2018-09-09T13:40:15.241Z,26.00
2018-09-09T13:42:42.828Z,26.00
2018-09-09T13:45:10.244Z,26.00
2018-09-09T13:47:37.859Z,26.00
2018-09-09T13:50:06.184Z,26.00
2018-09-09T13:52:33.650Z,25.90
2018-09-09T13:55:01.088Z,25.90
2018-09-09T13:57:28.525Z,25.80
2018-09-09T13:59:55.941Z,25.80
2018-09-09T14:02:23.434Z,25.90
2018-09-09T14:04:50.873Z,25.80
2018-09-09T14:07:18.501Z,25.90
2018-09-09T14:09:46.019Z,25.90
2018-09-09T14:12:13.405Z,26.00
2018-09-09T14:14:40.844Z,26.00
2018-09-09T14:17:08.382Z,26.00
2018-09-09T14:19:35.800Z,26.00
2018-09-09T14:22:03.249Z,26.00
2018-09-09T14:24:30.668Z,26.00
2018-09-09T14:26:58.148Z,25.90
2018-09-09T14:29:25.646Z,25.80
2018-09-09T14:31:53.000Z,25.90
2018-09-09T14:34:20.488Z,25.90
2018-09-09T14:36:47.915Z,26.00
2018-09-09T14:39:15.356Z,26.00
2018-09-09T14:41:42.858Z,25.90
2018-09-09T14:44:10.327Z,25.90
2018-09-09T14:46:37.842Z,26.00
2018-09-09T14:49:05.271Z,25.90
2018-09-09T14:51:33.056Z,25.90
2018-09-09T14:54:00.607Z,26.00
2018-09-09T14:56:28.116Z,26.00
2018-09-09T14:58:55.553Z,26.00
2018-09-09T15:01:23.092Z,26.10
2018-09-09T15:03:50.614Z,26.00
2018-09-09T15:06:18.601Z,26.00
2018-09-09T15:08:46.148Z,25.80
2018-09-09T15:11:13.580Z,25.80
2018-09-09T15:13:41.012Z,25.80
2018-09-09T15:16:08.494Z,25.80
2018-09-09T15:18:35.908Z,25.70
2018-09-09T15:21:03.441Z,25.60
2018-09-09T15:23:30.956Z,25.60
2018-09-09T15:25:58.475Z,25.50
2018-09-09T15:28:25.906Z,25.60
2018-09-09T15:30:53.466Z,25.60
2018-09-09T15:33:20.940Z,25.60
2018-09-09T15:35:48.357Z,25.60
2018-09-09T15:38:15.951Z,25.60
2018-09-09T15:40:43.441Z,25.70
2018-09-09T15:43:10.960Z,25.60
2018-09-09T15:45:38.623Z,25.60
2018-09-09T15:48:06.092Z,25.60
2018-09-09T15:50:33.524Z,25.60
2018-09-09T15:53:01.035Z,25.60
2018-09-09T15:55:28.485Z,25.50
2018-09-09T15:57:56.015Z,25.50
2018-09-09T16:00:23.542Z,25.50
2018-09-09T16:02:50.944Z,25.50
2018-09-09T16:05:18.354Z,25.30
2018-09-09T16:07:45.767Z,25.40
2018-09-09T16:10:13.294Z,25.40
2018-09-09T16:12:40.821Z,25.40
2018-09-09T16:15:08.954Z,25.30
2018-09-09T16:17:36.503Z,25.40
2018-09-09T16:20:05.673Z,25.30
2018-09-09T16:22:33.123Z,25.10
2018-09-09T16:25:00.567Z,25.20
2018-09-09T16:27:28.022Z,25.20
2018-09-09T16:29:55.456Z,25.20
2018-09-09T16:32:22.955Z,25.30
2018-09-09T16:34:50.416Z,25.30
2018-09-09T16:37:17.899Z,25.40
2018-09-09T16:39:45.662Z,25.30
2018-09-09T16:42:12.970Z,25.30
2018-09-09T16:44:40.476Z,25.30
2018-09-09T16:47:08.096Z,25.30
2018-09-09T16:49:35.530Z,25.40
2018-09-09T16:52:02.977Z,25.40
2018-09-09T16:54:30.469Z,25.40
2018-09-09T16:56:57.868Z,25.40
2018-09-09T16:59:26.107Z,25.50
2018-09-09T17:01:53.530Z,25.50
2018-09-09T17:04:21.066Z,25.40
2018-09-09T17:06:48.605Z,25.40
2018-09-09T17:09:16.080Z,25.40
2018-09-09T17:11:43.491Z,25.30
2018-09-09T17:14:10.972Z,25.30
2018-09-09T17:16:38.396Z,25.20
2018-09-09T17:19:06.993Z,25.20
2018-09-09T17:21:34.496Z,25.10
2018-09-09T17:24:01.945Z,25.00
2018-09-09T17:26:29.428Z,24.90
2018-09-09T17:28:56.866Z,24.70
2018-09-09T17:31:24.356Z,24.60
2018-09-09T17:33:51.780Z,24.50
2018-09-09T17:36:19.261Z,24.50
2018-09-09T17:38:47.001Z,24.30
2018-09-09T17:41:14.436Z,24.20
2018-09-09T17:43:41.968Z,24.10
2018-09-09T17:46:09.502Z,24.00
2018-09-09T17:48:37.022Z,23.80
2018-09-09T17:51:05.653Z,23.60
2018-09-09T17:53:33.624Z,23.50
2018-09-09T17:56:01.048Z,23.30
2018-09-09T17:58:29.552Z,23.20
2018-09-09T18:00:57.016Z,23.10
2018-09-09T18:03:24.430Z,23.00
2018-09-09T18:05:52.053Z,23.00
2018-09-09T18:08:19.429Z,22.90
2018-09-09T18:10:47.005Z,22.80
2018-09-09T18:13:14.465Z,22.70
2018-09-09T18:15:42.640Z,22.60
2018-09-09T18:18:10.081Z,22.60
2018-09-09T18:20:37.498Z,22.50
2018-09-09T18:23:04.965Z,22.50
2018-09-09T18:25:32.464Z,22.40
2018-09-09T18:28:00.007Z,22.30
2018-09-09T18:30:27.473Z,22.20
2018-09-09T18:32:55.232Z,22.10
2018-09-09T18:35:22.681Z,22.00
2018-09-09T18:37:50.155Z,21.90
2018-09-09T18:40:17.643Z,21.90
2018-09-09T18:42:45.158Z,21.80
2018-09-09T18:45:12.614Z,21.60
2018-09-09T18:47:40.124Z,21.40
2018-09-09T18:50:07.688Z,21.30
2018-09-09T18:52:35.213Z,21.20
2018-09-09T18:55:02.665Z,21.10
2018-09-09T18:57:30.151Z,21.10
2018-09-09T18:59:57.693Z,21.00
2018-09-09T19:02:25.125Z,20.90
2018-09-09T19:04:52.552Z,20.90
2018-09-09T19:07:20.289Z,20.90
2018-09-09T19:09:47.808Z,20.80
2018-09-09T19:12:15.538Z,20.80
2018-09-09T19:14:42.951Z,20.70
2018-09-09T19:17:10.563Z,20.60
2018-09-09T19:19:38.088Z,20.60
2018-09-09T19:22:05.596Z,20.50
2018-09-09T19:24:33.072Z,20.40
2018-09-09T19:27:00.485Z,20.40
2018-09-09T19:29:27.884Z,20.30
2018-09-09T19:31:55.331Z,20.20
2018-09-09T19:34:22.842Z,20.10
2018-09-09T19:36:50.460Z,20.00
2018-09-09T19:39:17.863Z,19.90
2018-09-09T19:41:45.378Z,19.80
2018-09-09T19:44:13.012Z,19.80
2018-09-09T19:46:40.405Z,19.60
2018-09-09T19:49:07.821Z,19.50
2018-09-09T19:51:35.692Z,19.50
2018-09-09T19:54:03.162Z,19.30
2018-09-09T19:56:30.588Z,19.20
2018-09-09T19:58:58.001Z,19.00
2018-09-09T20:01:25.428Z,18.70
2018-09-09T20:03:52.848Z,18.50
2018-09-09T20:06:20.404Z,18.30
2018-09-09T20:08:47.929Z,17.90
2018-09-09T20:11:15.371Z,17.70
2018-09-09T20:13:43.028Z,17.80
2018-09-09T20:16:10.493Z,17.90
2018-09-09T20:18:37.916Z,17.90
2018-09-09T20:21:05.657Z,17.80
2018-09-09T20:23:33.080Z,17.80
2018-09-09T20:26:00.601Z,17.80
2018-09-09T20:28:28.060Z,17.80
2018-09-09T20:30:55.491Z,17.70
2018-09-09T20:33:22.985Z,17.70
2018-09-09T20:35:50.457Z,17.70
2018-09-09T20:38:17.859Z,17.60
2018-09-09T20:40:47.316Z,17.60
2018-09-09T20:43:14.788Z,17.60
2018-09-09T20:45:42.236Z,17.60
2018-09-09T20:48:09.736Z,17.60
2018-09-09T20:50:37.261Z,17.60
2018-09-09T20:53:04.691Z,17.40
2018-09-09T20:55:32.133Z,17.30
2018-09-09T20:57:59.608Z,17.30
2018-09-09T21:00:27.099Z,17.20
2018-09-09T21:02:54.568Z,16.90
2018-09-09T21:05:22.041Z,16.90
2018-09-09T21:07:49.565Z,16.90
2018-09-09T21:10:16.975Z,16.80
2018-09-09T21:12:44.401Z,16.80
2018-09-09T21:15:11.805Z,16.80
2018-09-09T21:17:39.344Z,16.70
2018-09-09T21:20:06.772Z,16.60
2018-09-09T21:22:34.287Z,16.50
2018-09-09T21:25:02.032Z,16.50
2018-09-09T21:27:29.565Z,16.40
2018-09-09T21:29:56.976Z,16.20
2018-09-09T21:32:24.607Z,16.20
2018-09-09T21:34:52.069Z,16.10
2018-09-09T21:37:19.536Z,16.00
2018-09-09T21:39:46.984Z,16.10
2018-09-09T21:42:14.416Z,16.10
2018-09-09T21:44:41.941Z,16.10
2018-09-09T21:47:09.420Z,16.10
2018-09-09T21:49:36.840Z,16.10
2018-09-09T21:52:04.340Z,16.10
2018-09-09T21:54:32.116Z,16.00
2018-09-09T21:56:59.631Z,15.90
2018-09-09T21:59:27.052Z,15.70
2018-09-09T22:01:59.990Z,15.60
2018-09-09T22:04:27.519Z,15.60
2018-09-09T22:06:54.945Z,15.60
2018-09-09T22:09:22.476Z,15.50
2018-09-09T22:11:49.904Z,15.40
2018-09-09T22:14:17.320Z,15.30
2018-09-09T22:16:44.776Z,15.20
2018-09-09T22:19:12.192Z,15.20
2018-09-09T22:21:39.811Z,15.20
2018-09-09T22:24:07.251Z,15.20
2018-09-09T22:26:34.734Z,15.20
2018-09-09T22:29:02.156Z,15.10
2018-09-09T22:31:29.585Z,15.10
2018-09-09T22:33:57.000Z,15.10
2018-09-09T22:36:24.440Z,15.10
2018-09-09T22:38:51.941Z,15.10
2018-09-09T22:41:19.372Z,15.10
2018-09-09T22:43:46.881Z,15.10
2018-09-09T22:46:14.287Z,15.10
2018-09-09T22:48:41.772Z,15.10
2018-09-09T22:51:09.188Z,15.00
2018-09-09T22:53:36.607Z,15.00
2018-09-09T22:56:04.071Z,14.90
2018-09-09T22:58:31.475Z,14.80
2018-09-09T23:00:58.962Z,14.70
2018-09-09T23:03:26.386Z,14.80
2018-09-09T23:05:53.833Z,14.80
2018-09-09T23:08:21.408Z,14.70
2018-09-09T23:10:48.879Z,14.70
2018-09-09T23:13:16.412Z,14.40
2018-09-09T23:15:43.812Z,14.50
2018-09-09T23:18:11.244Z,14.50
2018-09-09T23:20:38.663Z,14.30
2018-09-09T23:23:06.093Z,14.30
2018-09-09T23:25:33.536Z,14.30
2018-09-09T23:28:01.023Z,14.20
2018-09-09T23:30:28.499Z,14.00
2018-09-09T23:32:55.971Z,14.00
2018-09-09T23:35:23.440Z,14.00
2018-09-09T23:37:50.851Z,14.00
2018-09-09T23:40:18.300Z,14.10
2018-09-09T23:42:45.727Z,14.10
2018-09-09T23:45:13.152Z,14.00
2018-09-09T23:47:40.615Z,14.10
2018-09-09T23:50:08.033Z,14.10
2018-09-09T23:52:35.451Z,14.20
2018-09-09T23:55:02.952Z,14.20
2018-09-09T23:57:30.372Z,14.20
2018-09-09T23:59:57.820Z,14.10
